Time;durP1;ratioP1;P1;durP2;ratioP2;P2;SDS_P1;SDS_P2;PMS_P1;PMS_P2;Temp;Humidity;BMP_temperature;BMP_pressure;BME280_temperature;BME280_humidity;BME280_pressure;Samples;Min_cycle;Max_cycle;Signal;HPM_P1;HPM_P2
2021/12/22 00:01:12;;;;;;;10.82;6.75;;;-3.30;99.90;;;;;;5270243;28;20129;-73
2021/12/22 00:03:46;;;;;;;11.55;6.65;;;-3.30;99.90;;;;;;5270109;28;20090;-74
2021/12/22 00:06:23;;;;;;;11.15;6.18;;;-3.00;99.90;;;;;;5270067;28;20024;-74
2021/12/22 00:08:54;;;;;;;9.13;6.53;;;-3.20;99.90;;;;;;5269783;28;20089;-73
2021/12/22 00:11:26;;;;;;;9.52;6.20;;;-3.20;99.90;;;;;;5269792;28;20099;-74
2021/12/22 00:13:57;;;;;;;9.52;6.40;;;-3.30;99.90;;;;;;5269564;28;20056;-74
2021/12/22 00:16:28;;;;;;;12.45;7.28;;;-3.30;99.90;;;;;;5269794;28;20085;-73
2021/12/22 00:18:58;;;;;;;10.07;6.65;;;-3.20;99.90;;;;;;5268811;28;20036;-73
2021/12/22 00:21:29;;;;;;;11.68;7.30;;;-3.40;99.90;;;;;;5269672;28;20067;-74
2021/12/22 00:24:00;;;;;;;9.98;7.00;;;-3.60;99.90;;;;;;5269668;28;20090;-74
2021/12/22 00:26:31;;;;;;;14.25;8.52;;;-3.30;99.90;;;;;;5269677;28;20021;-74
2021/12/22 00:29:03;;;;;;;14.95;8.48;;;-3.40;99.90;;;;;;5269448;28;20081;-74
2021/12/22 00:31:41;;;;;;;17.42;10.40;;;-3.70;99.90;;;;;;5269673;28;20502;-73
2021/12/22 00:34:16;;;;;;;16.65;10.52;;;-3.50;99.90;;;;;;5269466;28;20111;-74
2021/12/22 00:36:47;;;;;;;17.73;10.20;;;-3.90;99.90;;;;;;5269534;28;20361;-73
2021/12/22 00:39:18;;;;;;;17.10;10.05;;;-3.50;99.90;;;;;;5269192;28;20024;-73
2021/12/22 00:41:50;;;;;;;15.93;8.57;;;-3.80;99.90;;;;;;5269160;28;20028;-76
2021/12/22 00:44:22;;;;;;;14.25;8.88;;;-3.70;99.90;;;;;;5269268;28;20052;-74
2021/12/22 00:46:53;;;;;;;14.05;7.72;;;-3.30;99.90;;;;;;5269064;28;20078;-73
2021/12/22 00:49:24;;;;;;;12.05;7.82;;;-3.60;99.90;;;;;;5269150;28;20036;-73
2021/12/22 00:51:55;;;;;;;15.10;8.13;;;-3.50;99.90;;;;;;5269169;28;20025;-74
2021/12/22 00:54:26;;;;;;;16.33;8.70;;;-3.80;99.90;;;;;;5269078;28;20030;-74
2021/12/22 00:57:03;;;;;;;19.15;9.70;;;-4.00;99.90;;;;;;5269027;28;20032;-74
2021/12/22 00:59:35;;;;;;;18.60;9.35;;;-4.10;99.90;;;;;;5269121;28;20025;-74
2021/12/22 01:02:08;;;;;;;17.02;8.55;;;-3.80;99.90;;;;;;5268937;28;20028;-73
2021/12/22 01:04:40;;;;;;;19.67;9.85;;;-3.80;99.90;;;;;;5269053;28;20036;-77
2021/12/22 01:07:11;;;;;;;16.20;9.32;;;-3.80;99.90;;;;;;5268851;28;20039;-77
2021/12/22 01:09:42;;;;;;;21.10;9.55;;;-3.70;99.90;;;;;;5268813;28;20546;-74
2021/12/22 01:12:13;;;;;;;19.00;9.68;;;-4.00;99.90;;;;;;5268870;28;20028;-73
2021/12/22 01:14:44;;;;;;;20.20;9.88;;;-3.90;99.90;;;;;;5268771;28;20436;-74
2021/12/22 01:17:16;;;;;;;14.48;9.20;;;-3.70;99.90;;;;;;5268817;28;20032;-74
2021/12/22 01:20:02;;;;;;;16.60;9.82;;;-4.00;99.90;;;;;;5268800;28;20035;-74
2021/12/22 01:22:47;;;;;;;18.67;10.55;;;-3.70;99.90;;;;;;5268744;28;20059;-77
2021/12/22 01:25:22;;;;;;;16.90;9.77;;;-3.90;99.90;;;;;;5268895;28;20490;-74
2021/12/22 01:27:53;;;;;;;16.58;10.23;;;-3.90;99.90;;;;;;5268610;28;20032;-73
2021/12/22 01:30:27;;;;;;;18.27;10.35;;;-3.80;99.90;;;;;;5270520;28;20613;-74
2021/12/22 01:33:00;;;;;;;16.33;9.50;;;-3.90;99.90;;;;;;5273093;28;20506;-73
2021/12/22 01:35:33;;;;;;;15.82;8.68;;;-3.90;99.90;;;;;;5272988;28;20039;-73
2021/12/22 01:38:05;;;;;;;15.18;9.18;;;-3.70;99.90;;;;;;5272900;28;20032;-73
2021/12/22 01:40:41;;;;;;;14.48;8.45;;;-3.80;99.90;;;;;;5272884;28;20367;-74
2021/12/22 01:43:14;;;;;;;17.92;9.55;;;-3.70;99.90;;;;;;5272935;28;20491;-74
2021/12/22 01:52:01;;;;;;;16.30;10.32;;;-3.90;99.90;;;;;;5272995;28;20479;-73
2021/12/22 01:54:34;;;;;;;16.55;10.70;;;-4.00;99.90;;;;;;5272654;28;20471;-73
2021/12/22 01:57:09;;;;;;;18.17;11.02;;;-4.00;99.90;;;;;;5272554;28;20495;-73
2021/12/22 01:59:43;;;;;;;19.98;10.95;;;-4.10;99.90;;;;;;5272547;28;20028;-76
2021/12/22 02:02:15;;;;;;;17.73;10.45;;;-3.80;99.90;;;;;;5272359;28;20506;-73
2021/12/22 02:04:46;;;;;;;16.80;10.35;;;-4.20;99.90;;;;;;5272592;28;20028;-74
2021/12/22 02:07:17;;;;;;;18.27;10.50;;;-3.80;99.90;;;;;;5272279;28;20016;-73
2021/12/22 02:12:19;;;;;;;17.63;10.75;;;-4.20;99.90;;;;;;5272493;28;20169;-73
2021/12/22 02:14:50;;;;;;;17.65;10.65;;;-3.90;99.90;;;;;;5272173;28;20119;-73
2021/12/22 02:17:20;;;;;;;18.42;11.43;;;-4.20;99.90;;;;;;5272205;28;20099;-73
2021/12/22 02:19:51;;;;;;;20.27;10.40;;;-4.20;99.90;;;;;;5272165;28;20471;-73
2021/12/22 02:22:23;;;;;;;18.75;10.43;;;-4.30;99.90;;;;;;5272065;28;20040;-73
2021/12/22 02:24:59;;;;;;;16.25;10.20;;;-4.20;99.90;;;;;;5272087;28;20023;-73
2021/12/22 02:27:42;;;;;;;17.30;10.38;;;-4.40;99.90;;;;;;5271839;28;20028;-73
2021/12/22 02:30:23;;;;;;;15.48;10.05;;;-4.30;99.90;;;;;;5272058;28;20418;-73
2021/12/22 02:35:42;;;;;;;16.90;10.07;;;-4.30;99.90;;;;;;5271853;28;20026;-73
2021/12/22 02:38:18;;;;;;;21.42;10.00;;;-4.30;99.90;;;;;;5271825;28;20078;-76
2021/12/22 02:40:51;;;;;;;17.35;9.82;;;-4.40;99.90;;;;;;5271319;28;20028;-73
2021/12/22 02:43:24;;;;;;;19.48;9.98;;;-4.20;99.90;;;;;;5270852;28;20044;-74
2021/12/22 02:45:55;;;;;;;17.83;9.95;;;-4.10;99.90;;;;;;5271670;28;20028;-73
2021/12/22 02:48:32;;;;;;;17.02;10.75;;;-4.30;99.90;;;;;;5271550;28;20030;-73
2021/12/22 02:51:03;;;;;;;16.95;9.80;;;-4.40;99.90;;;;;;5271547;28;20414;-73
2021/12/22 02:53:45;;;;;;;15.88;10.32;;;-4.30;99.90;;;;;;5271425;28;20077;-73
2021/12/22 03:01:54;;;;;;;17.67;10.90;;;-4.20;99.90;;;;;;5271330;28;20552;-73
2021/12/22 03:04:27;;;;;;;21.88;11.25;;;-4.30;99.90;;;;;;5271224;28;20059;-73
2021/12/22 03:07:03;;;;;;;19.90;11.35;;;-4.20;99.90;;;;;;5271116;28;20115;-72
2021/12/22 03:09:35;;;;;;;17.00;10.48;;;-4.10;99.90;;;;;;5270985;28;20063;-72
2021/12/22 03:12:10;;;;;;;19.88;11.48;;;-4.00;99.90;;;;;;5271160;28;20507;-72
2021/12/22 03:14:41;;;;;;;18.27;10.93;;;-4.00;99.90;;;;;;5270876;28;20126;-73
2021/12/22 03:17:12;;;;;;;18.23;10.55;;;-4.10;99.90;;;;;;5270990;28;20126;-73
2021/12/22 03:19:43;;;;;;;16.80;10.43;;;-4.10;99.90;;;;;;5270996;28;20012;-73
2021/12/22 03:22:18;;;;;;;16.35;10.63;;;-4.20;99.90;;;;;;5270938;28;20470;-73
2021/12/22 03:24:51;;;;;;;20.42;11.65;;;-4.10;99.90;;;;;;5270931;28;20082;-72
2021/12/22 03:27:23;;;;;;;17.55;11.13;;;-4.20;99.90;;;;;;5270646;28;20085;-73
2021/12/22 03:29:54;;;;;;;18.63;10.68;;;-4.00;99.90;;;;;;5270893;28;20038;-73
2021/12/22 03:32:24;;;;;;;20.80;11.07;;;-4.20;99.90;;;;;;5270782;28;20099;-73
2021/12/22 03:34:55;;;;;;;19.33;10.48;;;-4.10;99.90;;;;;;5270614;28;20121;-73
2021/12/22 03:37:26;;;;;;;18.00;10.75;;;-4.30;99.90;;;;;;5270473;28;20457;-72
2021/12/22 03:39:57;;;;;;;17.83;10.70;;;-4.30;99.90;;;;;;5270494;28;20032;-72
2021/12/22 03:42:28;;;;;;;17.27;10.85;;;-4.50;99.90;;;;;;5270469;28;20040;-73
2021/12/22 03:44:59;;;;;;;20.42;11.18;;;-4.50;99.90;;;;;;5270410;28;20367;-72
2021/12/22 03:47:30;;;;;;;17.20;10.57;;;-4.60;99.90;;;;;;5270361;28;20032;-73
2021/12/22 03:50:02;;;;;;;20.15;10.48;;;-4.50;99.90;;;;;;5270536;28;20371;-72
2021/12/22 03:52:33;;;;;;;15.32;9.88;;;-4.10;99.90;;;;;;5270122;28;20513;-73
2021/12/22 03:55:05;;;;;;;15.00;9.60;;;-4.40;99.90;;;;;;5270179;28;20048;-73
2021/12/22 03:57:36;;;;;;;16.63;10.20;;;-4.00;99.90;;;;;;5270225;28;20032;-72
2021/12/22 04:00:10;;;;;;;16.98;9.93;;;-4.30;99.90;;;;;;5270106;28;20020;-72
2021/12/22 04:02:41;;;;;;;16.52;10.45;;;-4.40;99.90;;;;;;5270053;28;20060;-76
2021/12/22 04:05:12;;;;;;;17.92;10.98;;;-4.40;99.90;;;;;;5270142;28;20486;-73
2021/12/22 04:07:44;;;;;;;17.48;10.40;;;-4.50;99.90;;;;;;5269787;28;20154;-72
2021/12/22 04:10:22;;;;;;;17.67;10.43;;;-4.60;99.90;;;;;;5269832;28;20089;-73
2021/12/22 04:12:55;;;;;;;17.63;10.40;;;-4.60;99.90;;;;;;5269728;28;20055;-72
2021/12/22 04:15:27;;;;;;;17.73;9.77;;;-4.50;99.90;;;;;;5269788;28;20039;-73
2021/12/22 04:17:58;;;;;;;16.02;9.93;;;-4.30;99.90;;;;;;5269842;28;20103;-73
2021/12/22 04:20:29;;;;;;;17.88;9.65;;;-4.30;99.90;;;;;;5269766;28;20127;-73
2021/12/22 04:23:01;;;;;;;16.10;9.43;;;-4.30;99.90;;;;;;5269681;28;20039;-73
2021/12/22 04:25:33;;;;;;;16.05;9.73;;;-4.70;99.90;;;;;;5269753;28;20284;-72
2021/12/22 04:28:08;;;;;;;15.70;9.13;;;-4.90;99.90;;;;;;5269502;28;20095;-73
2021/12/22 04:30:49;;;;;;;14.02;8.85;;;-4.60;99.90;;;;;;5269607;28;20039;-72
2021/12/22 04:33:20;;;;;;;;;;;-4.40;99.90;;;;;;5270044;28;20103;-73
2021/12/22 04:35:51;;;;;;;;;;;-4.80;99.90;;;;;;5269938;28;20316;-76
2021/12/22 04:38:22;;;;;;;18.77;10.52;;;-4.80;99.90;;;;;;5269375;28;19957;-73
2021/12/22 04:40:53;;;;;;;15.20;9.88;;;-4.60;99.90;;;;;;5269239;28;20449;-73
2021/12/22 04:43:24;;;;;;;16.23;10.00;;;-4.30;99.90;;;;;;5269277;28;20028;-72
2021/12/22 04:45:54;;;;;;;18.48;11.35;;;-4.60;99.90;;;;;;5269318;28;20464;-72
2021/12/22 04:48:25;;;;;;;20.58;10.95;;;-4.80;99.90;;;;;;5269987;28;20024;-73
2021/12/22 04:50:56;;;;;;;19.15;11.93;;;-4.50;99.90;;;;;;5269252;28;20387;-73
2021/12/22 04:53:36;;;;;;;18.17;10.55;;;-4.20;99.90;;;;;;5269190;28;20111;-73
2021/12/22 04:56:07;;;;;;;21.05;11.80;;;-4.30;99.90;;;;;;5269281;28;20032;-73
2021/12/22 04:58:38;;;;;;;17.63;10.48;;;-4.50;99.90;;;;;;5269061;28;20024;-73
2021/12/22 05:01:08;;;;;;;18.25;10.90;;;-4.60;99.90;;;;;;5269063;28;20027;-73
2021/12/22 05:03:41;;;;;;;20.13;11.55;;;-4.40;99.90;;;;;;5267640;28;20032;-73
2021/12/22 05:06:12;;;;;;;18.58;10.63;;;-4.50;99.90;;;;;;5268553;28;20020;-74
2021/12/22 05:08:42;;;;;;;20.20;11.35;;;-4.50;99.90;;;;;;5268696;28;20039;-73
2021/12/22 05:11:13;;;;;;;19.70;11.10;;;-4.30;99.90;;;;;;5268895;28;20081;-73
2021/12/22 05:13:44;;;;;;;19.17;11.02;;;-4.30;99.90;;;;;;5268681;28;20067;-73
2021/12/22 05:16:19;;;;;;;18.60;11.18;;;-3.90;99.90;;;;;;5268908;28;20017;-73
2021/12/22 05:19:11;;;;;;;17.27;10.60;;;-4.00;99.90;;;;;;5268745;28;20035;-74
2021/12/22 05:21:44;;;;;;;23.73;10.05;;;-4.10;99.90;;;;;;5268808;28;20048;-74
2021/12/22 05:24:14;;;;;;;18.17;9.82;;;-4.00;99.90;;;;;;5268823;28;20061;-73
2021/12/22 05:26:46;;;;;;;17.80;10.50;;;-3.90;99.90;;;;;;5268678;28;20110;-73
2021/12/22 05:29:17;;;;;;;16.45;9.43;;;-3.80;99.90;;;;;;5268626;28;20077;-73
2021/12/22 05:31:53;;;;;;;20.10;11.18;;;-4.00;99.90;;;;;;5268826;28;20456;-73
2021/12/22 05:34:24;;;;;;;21.58;10.18;;;-3.90;99.90;;;;;;5268800;28;20028;-76
2021/12/22 05:36:55;;;;;;;17.88;10.85;;;-3.80;99.90;;;;;;5268642;28;20081;-73
2021/12/22 05:39:26;;;;;;;20.02;11.82;;;-3.70;99.90;;;;;;5268426;28;20028;-73
2021/12/22 05:41:57;;;;;;;19.10;11.52;;;-3.70;99.90;;;;;;5268666;28;20407;-73
2021/12/22 05:44:28;;;;;;;21.67;11.20;;;-3.90;99.90;;;;;;5268605;28;20024;-73
2021/12/22 05:46:59;;;;;;;19.90;10.57;;;-3.60;99.90;;;;;;5268408;28;20040;-73
2021/12/22 05:49:30;;;;;;;20.35;10.98;;;-3.70;99.90;;;;;;5268580;28;20024;-73
2021/12/22 05:52:01;;;;;;;20.02;10.75;;;-3.50;99.90;;;;;;5268452;28;20060;-73
2021/12/22 05:54:32;;;;;;;18.50;10.32;;;-3.50;99.90;;;;;;5268562;28;20384;-73
2021/12/22 05:57:04;;;;;;;19.92;10.98;;;-3.50;99.90;;;;;;5268452;28;20364;-73
2021/12/22 05:59:35;;;;;;;20.50;9.98;;;-3.50;99.90;;;;;;5268616;28;20446;-73
2021/12/22 06:02:06;;;;;;;22.35;10.70;;;-3.50;99.90;;;;;;5268449;28;20021;-73
2021/12/22 06:04:36;;;;;;;17.58;9.43;;;-3.70;99.90;;;;;;5268421;28;20487;-73
2021/12/22 06:07:07;;;;;;;18.00;9.40;;;-3.60;99.90;;;;;;5268194;28;20056;-76
2021/12/22 06:09:38;;;;;;;18.27;10.57;;;-3.80;99.90;;;;;;5268295;28;20033;-73
2021/12/22 06:12:09;;;;;;;15.35;9.45;;;-3.70;99.90;;;;;;5268433;28;20028;-74
2021/12/22 06:14:40;;;;;;;18.52;9.43;;;-3.60;99.90;;;;;;5268192;28;20055;-73
2021/12/22 06:17:11;;;;;;;129.18;53.70;;;-3.50;99.90;;;;;;5271080;28;20023;-74
2021/12/22 06:19:41;;;;;;;23.42;14.40;;;-3.20;99.90;;;;;;5272267;28;20028;-73
2021/12/22 06:22:12;;;;;;;18.67;12.55;;;-3.50;99.90;;;;;;5272152;28;20028;-73
2021/12/22 06:24:43;;;;;;;22.02;12.32;;;-3.40;99.90;;;;;;5272258;28;20505;-73
2021/12/22 06:27:15;;;;;;;23.17;13.40;;;-3.20;99.90;;;;;;5271889;28;20146;-73
2021/12/22 06:29:46;;;;;;;17.92;11.15;;;-3.10;99.90;;;;;;5271995;28;20050;-73
2021/12/22 06:32:17;;;;;;;20.15;11.90;;;-3.00;99.90;;;;;;5271975;28;20028;-73
2021/12/22 06:34:47;;;;;;;19.83;11.10;;;-3.10;99.90;;;;;;5271943;28;20101;-73
2021/12/22 06:37:18;;;;;;;18.15;10.68;;;-3.10;99.90;;;;;;5271738;28;20059;-75
2021/12/22 06:39:49;;;;;;;20.52;10.85;;;-3.10;99.90;;;;;;5271669;28;20099;-73
2021/12/22 06:42:20;;;;;;;19.27;11.23;;;-3.00;99.90;;;;;;5271689;28;20368;-73
2021/12/22 06:44:51;;;;;;;17.10;10.88;;;-2.90;99.90;;;;;;5271634;28;20020;-73
2021/12/22 06:47:22;;;;;;;16.73;10.05;;;-2.90;99.90;;;;;;5270204;28;20028;-73
2021/12/22 06:49:53;;;;;;;16.48;10.02;;;-2.90;99.90;;;;;;5271580;28;20039;-73
2021/12/22 06:52:24;;;;;;;17.20;11.15;;;-2.70;99.90;;;;;;5271590;28;20028;-75
2021/12/22 06:54:55;;;;;;;19.70;10.02;;;-2.90;99.90;;;;;;5271584;28;20378;-75
2021/12/22 06:57:29;;;;;;;19.90;10.88;;;-2.70;99.90;;;;;;5271400;28;20027;-74
2021/12/22 07:00:02;;;;;;;16.00;10.23;;;-2.80;99.90;;;;;;5271487;28;20029;-76
2021/12/22 07:02:36;;;;;;;16.45;10.15;;;-2.70;99.90;;;;;;5271299;28;20030;-73
2021/12/22 07:05:10;;;;;;;21.02;13.60;;;-2.40;99.90;;;;;;5271298;28;20028;-73
2021/12/22 07:07:41;;;;;;;19.67;10.70;;;-2.20;99.90;;;;;;5270965;28;20552;-73
2021/12/22 07:10:12;;;;;;;18.13;10.45;;;-2.30;99.90;;;;;;5271140;28;20052;-73
2021/12/22 07:12:48;;;;;;;19.38;11.90;;;-2.30;99.90;;;;;;5270944;28;20035;-73
2021/12/22 07:15:19;;;;;;;13.43;8.50;;;-2.20;99.90;;;;;;5271142;28;20032;-73
2021/12/22 07:17:51;;;;;;;18.65;9.52;;;-2.00;99.90;;;;;;5271064;28;20062;-73
2021/12/22 07:20:22;;;;;;;19.27;9.82;;;-2.20;99.90;;;;;;5271078;28;20031;-73
2021/12/22 07:22:52;;;;;;;17.85;10.05;;;-2.10;99.90;;;;;;5270914;28;20475;-73
2021/12/22 07:25:24;;;;;;;14.27;9.10;;;-1.90;99.90;;;;;;5270953;28;20030;-73
2021/12/22 07:27:55;;;;;;;14.73;8.85;;;-1.70;99.90;;;;;;5270072;28;20040;-73
2021/12/22 07:30:26;;;;;;;14.18;8.52;;;-1.70;99.90;;;;;;5270763;28;20100;-73
2021/12/22 07:32:57;;;;;;;16.45;9.73;;;-1.60;99.90;;;;;;5270801;28;20074;-73
2021/12/22 07:35:38;;;;;;;14.63;9.18;;;-1.40;99.90;;;;;;5270676;28;20032;-73
2021/12/22 07:38:31;;;;;;;13.85;8.85;;;-1.40;99.90;;;;;;5270541;28;20036;-74
2021/12/22 07:41:04;;;;;;;15.10;8.93;;;-1.20;99.90;;;;;;5270420;28;20028;-73
2021/12/22 07:43:36;;;;;;;17.15;9.02;;;-1.00;99.90;;;;;;5270421;28;20048;-76
2021/12/22 07:46:08;;;;;;;14.60;9.30;;;-0.90;99.90;;;;;;5270394;28;20035;-74
2021/12/22 07:48:39;;;;;;;14.43;8.95;;;-0.80;99.90;;;;;;5270374;28;20067;-73
2021/12/22 07:51:10;;;;;;;16.58;8.82;;;-0.90;99.90;;;;;;5270398;28;20101;-73
2021/12/22 07:53:41;;;;;;;15.48;8.68;;;-0.80;99.90;;;;;;5270325;28;20019;-73
2021/12/22 07:56:12;;;;;;;16.20;8.98;;;-0.70;99.90;;;;;;5270124;28;20032;-73
2021/12/22 07:58:43;;;;;;;16.50;8.05;;;-0.70;99.90;;;;;;5270146;28;20360;-72
2021/12/22 08:01:14;;;;;;;11.00;7.57;;;-0.70;99.90;;;;;;5270105;28;20032;-73
2021/12/22 08:03:45;;;;;;;15.70;8.82;;;-0.50;99.90;;;;;;5270064;28;20422;-73
2021/12/22 08:06:15;;;;;;;17.40;9.30;;;-0.10;99.90;;;;;;5269894;28;20367;-73
2021/12/22 08:08:47;;;;;;;17.35;9.02;;;-0.10;99.90;;;;;;5269836;28;20031;-73
2021/12/22 08:11:18;;;;;;;15.10;8.25;;;0.20;99.90;;;;;;5269851;28;20112;-72
2021/12/22 08:13:49;;;;;;;12.63;8.35;;;0.40;99.90;;;;;;5269741;28;20554;-73
2021/12/22 08:16:20;;;;;;;12.30;8.02;;;0.50;99.90;;;;;;5269829;28;20046;-73
2021/12/22 08:18:51;;;;;;;14.60;8.05;;;0.80;99.90;;;;;;5268699;28;20150;-73
2021/12/22 08:21:21;;;;;;;14.02;7.63;;;0.90;99.90;;;;;;5269806;28;20035;-74
2021/12/22 08:23:52;;;;;;;63.47;39.45;;;0.90;99.90;;;;;;5269678;28;20036;-73
2021/12/22 08:26:23;;;;;;;17.00;10.10;;;1.30;99.90;;;;;;5269598;28;20027;-73
2021/12/22 08:28:55;;;;;;;16.13;7.60;;;1.50;99.90;;;;;;5269494;28;20071;-74
2021/12/22 08:31:26;;;;;;;9.88;6.82;;;2.00;99.90;;;;;;5269556;28;20024;-73
2021/12/22 08:33:56;;;;;;;7.78;5.32;;;2.00;99.90;;;;;;5269534;28;20032;-74
2021/12/22 08:39:17;;;;;;;10.77;5.60;;;2.60;99.90;;;;;;5269005;28;20077;-76
2021/12/22 08:41:49;;;;;;;12.77;6.88;;;2.80;99.90;;;;;;5269219;28;20031;-76
2021/12/22 08:44:20;;;;;;;12.63;7.18;;;2.90;99.90;;;;;;5269340;28;20081;-74
2021/12/22 08:46:51;;;;;;;15.82;6.50;;;2.90;99.90;;;;;;5269300;28;20372;-76
2021/12/22 08:49:23;;;;;;;13.00;6.38;;;3.00;99.90;;;;;;5269181;28;20047;-73
2021/12/22 08:51:53;;;;;;;11.15;5.32;;;3.00;99.90;;;;;;5269199;28;20024;-73
2021/12/22 08:54:24;;;;;;;6.53;3.75;;;3.00;99.90;;;;;;5269438;28;20035;-76
2021/12/22 08:56:56;;;;;;;7.00;3.40;;;3.10;99.90;;;;;;5269155;28;20028;-73
2021/12/22 08:59:27;;;;;;;5.10;2.53;;;3.00;99.90;;;;;;5269178;28;20032;-73
2021/12/22 09:01:58;;;;;;;6.20;2.80;;;3.00;99.90;;;;;;5269050;28;20020;-72
2021/12/22 09:04:30;;;;;;;5.95;3.15;;;3.30;99.90;;;;;;5269091;28;20036;-72
2021/12/22 09:07:01;;;;;;;5.43;3.00;;;3.30;99.90;;;;;;5268964;28;20024;-72
2021/12/22 09:09:33;;;;;;;6.70;2.40;;;3.50;99.90;;;;;;5268740;28;20530;-71
2021/12/22 09:12:06;;;;;;;4.03;2.60;;;3.60;99.90;;;;;;5268969;28;20028;-71
2021/12/22 09:14:36;;;;;;;5.70;2.90;;;3.40;99.90;;;;;;5268729;28;20058;-71
2021/12/22 09:17:07;;;;;;;8.55;3.03;;;3.60;99.90;;;;;;5267661;28;20020;-71
2021/12/22 09:19:38;;;;;;;5.65;3.28;;;3.50;99.90;;;;;;5268773;28;20032;-71
2021/12/22 09:22:09;;;;;;;8.98;3.90;;;3.50;99.90;;;;;;5268719;28;20027;-71
2021/12/22 09:24:40;;;;;;;6.57;3.28;;;3.70;99.90;;;;;;5268918;28;20028;-71
2021/12/22 09:27:11;;;;;;;5.80;3.40;;;3.70;99.90;;;;;;5268794;28;20035;-71
2021/12/22 09:29:42;;;;;;;4.68;2.50;;;3.60;99.90;;;;;;5268727;28;20020;-71
2021/12/22 09:32:15;;;;;;;5.13;2.55;;;3.90;99.90;;;;;;5268735;28;20499;-71
2021/12/22 09:34:49;;;;;;;7.78;3.42;;;3.90;99.90;;;;;;5268737;28;20038;-71
2021/12/22 09:37:20;;;;;;;4.65;2.38;;;3.90;99.90;;;;;;5268544;28;20032;-71
2021/12/22 09:39:51;;;;;;;3.53;1.85;;;3.80;99.90;;;;;;5268494;28;20028;-76
2021/12/22 09:42:22;;;;;;;7.53;2.90;;;3.80;99.90;;;;;;5268580;28;20032;-71
2021/12/22 09:44:52;;;;;;;5.47;3.08;;;4.10;99.90;;;;;;5268677;28;20032;-71
2021/12/22 09:47:28;;;;;;;8.07;2.80;;;4.00;99.90;;;;;;5267121;28;20016;-71
2021/12/22 09:50:09;;;;;;;4.75;2.85;;;4.20;99.90;;;;;;5268667;28;20047;-70
2021/12/22 09:52:40;;;;;;;9.82;2.72;;;4.30;99.90;;;;;;5272466;28;20012;-71
2021/12/22 09:55:11;;;;;;;6.05;3.15;;;4.20;99.90;;;;;;5272808;28;20069;-70
2021/12/22 09:57:44;;;;;;;8.05;3.53;;;4.30;99.90;;;;;;5272557;28;20022;-70
2021/12/22 10:00:15;;;;;;;3.72;2.13;;;4.10;99.90;;;;;;5272634;28;20024;-70
2021/12/22 10:02:46;;;;;;;5.50;1.98;;;4.10;99.90;;;;;;5272538;28;20074;-70
2021/12/22 10:05:17;;;;;;;3.05;1.50;;;4.00;99.90;;;;;;5272553;28;20103;-71
2021/12/22 10:08:06;;;;;;;3.75;1.95;;;3.90;99.90;;;;;;5272348;28;20024;-75
2021/12/22 10:10:40;;;;;;;6.53;2.05;;;4.00;99.90;;;;;;5272315;28;20040;-70
2021/12/22 10:13:20;;;;;;;3.70;1.98;;;4.00;99.90;;;;;;5272249;28;20202;-71
2021/12/22 10:15:51;;;;;;;4.60;1.92;;;4.00;99.90;;;;;;5272296;28;20032;-71
2021/12/22 10:18:27;;;;;;;3.38;1.63;;;4.00;99.90;;;;;;5272249;28;20024;-71
2021/12/22 10:21:21;;;;;;;2.30;1.70;;;3.80;99.90;;;;;;5272392;28;20371;-71
2021/12/22 10:23:53;;;;;;;3.45;1.85;;;3.90;99.90;;;;;;5272106;28;20040;-71
2021/12/22 10:26:27;;;;;;;5.18;2.85;;;4.10;99.90;;;;;;5271917;28;20036;-71
2021/12/22 10:29:01;;;;;;;2.78;1.70;;;4.50;99.90;;;;;;5271990;28;20047;-70
2021/12/22 10:31:41;;;;;;;4.95;1.90;;;4.20;99.90;;;;;;5272084;28;20020;-71
2021/12/22 10:34:14;;;;;;;4.60;1.92;;;4.20;99.90;;;;;;5272061;28;20020;-71
2021/12/22 10:36:49;;;;;;;3.05;1.92;;;4.40;99.90;;;;;;5271834;28;20031;-71
2021/12/22 10:39:27;;;;;;;2.45;1.63;;;4.50;99.90;;;;;;5271920;28;20430;-71
2021/12/22 10:42:05;;;;;;;4.65;2.30;;;4.70;99.90;;;;;;5271666;28;20097;-71
2021/12/22 10:44:38;;;;;;;6.72;2.58;;;4.40;99.90;;;;;;5271791;28;20028;-71
2021/12/22 10:47:23;;;;;;;3.42;1.90;;;4.50;99.90;;;;;;5271561;28;20024;-71
2021/12/22 10:50:00;;;;;;;4.57;1.83;;;4.50;99.90;;;;;;5271634;28;20022;-71
2021/12/22 10:52:33;;;;;;;4.05;1.92;;;4.60;99.90;;;;;;5271505;28;20089;-73
2021/12/22 10:55:13;;;;;;;2.55;1.70;;;4.60;99.90;;;;;;5271619;28;20046;-71
2021/12/22 10:57:47;;;;;;;2.47;1.50;;;4.50;99.90;;;;;;5271557;28;20032;-72
2021/12/22 11:00:22;;;;;;;3.17;1.60;;;4.40;99.90;;;;;;5271464;28;20115;-72
2021/12/22 11:03:09;;;;;;;3.45;2.10;;;4.40;99.90;;;;;;5270378;28;20032;-72
2021/12/22 11:05:48;;;;;;;4.15;2.00;;;4.20;99.90;;;;;;5271469;28;20471;-72
2021/12/22 11:08:26;;;;;;;4.82;2.33;;;4.40;99.90;;;;;;5271054;28;20404;-76
2021/12/22 11:10:57;;;;;;;5.30;2.55;;;4.60;99.90;;;;;;5271156;28;20059;-73
2021/12/22 11:13:27;;;;;;;4.60;1.92;;;4.50;99.90;;;;;;5270926;28;20080;-72
2021/12/22 11:15:58;;;;;;;3.40;1.83;;;4.40;99.90;;;;;;5271139;28;20020;-75
2021/12/22 11:18:31;;;;;;;4.07;1.85;;;4.40;99.90;;;;;;5269862;28;20016;-71
2021/12/22 11:21:29;;;;;;;3.65;2.03;;;4.10;99.90;;;;;;5269808;28;20361;-76
2021/12/22 11:24:01;;;;;;;3.28;2.10;;;4.30;99.90;;;;;;5269842;28;20072;-72
2021/12/22 11:26:31;;;;;;;4.20;2.25;;;4.40;99.90;;;;;;5270875;28;20024;-72
2021/12/22 11:29:02;;;;;;;6.03;2.95;;;4.20;99.90;;;;;;5270801;28;20028;-71
2021/12/22 11:31:33;;;;;;;5.55;2.30;;;4.40;99.90;;;;;;5270782;28;20021;-73
2021/12/22 11:34:05;;;;;;;4.28;2.53;;;4.30;99.90;;;;;;5270823;28;20016;-72
2021/12/22 11:36:36;;;;;;;3.60;1.98;;;4.30;99.90;;;;;;5269384;28;20489;-75
2021/12/22 11:39:08;;;;;;;2.88;1.88;;;4.10;99.90;;;;;;5270585;28;20024;-73
2021/12/22 11:41:44;;;;;;;4.03;1.70;;;4.30;99.90;;;;;;5270519;28;20028;-72
2021/12/22 11:44:14;;;;;;;4.15;1.92;;;4.30;99.90;;;;;;5270644;28;20036;-72
2021/12/22 11:46:47;;;;;;;3.83;1.92;;;4.10;99.90;;;;;;5270411;28;20119;-72
2021/12/22 11:49:20;;;;;;;2.90;1.80;;;4.20;99.90;;;;;;5270367;28;20081;-72
2021/12/22 11:51:51;;;;;;;3.05;2.15;;;4.30;99.90;;;;;;5270319;28;20028;-76
2021/12/22 11:54:27;;;;;;;3.80;1.63;;;4.30;99.90;;;;;;5270447;28;20421;-72
2021/12/22 11:56:59;;;;;;;3.47;2.08;;;4.40;99.90;;;;;;5270136;28;20024;-72
2021/12/22 11:59:37;;;;;;;2.47;1.60;;;4.40;99.90;;;;;;5270239;28;20069;-72
2021/12/22 12:02:33;;;;;;;4.38;1.65;;;4.60;99.90;;;;;;5270113;28;20030;-73
2021/12/22 12:05:25;;;;;;;3.22;1.60;;;4.30;99.90;;;;;;5270023;28;20024;-72
2021/12/22 12:08:07;;;;;;;1.70;1.30;;;4.50;99.90;;;;;;5269899;28;20024;-73
2021/12/22 12:10:44;;;;;;;4.30;2.53;;;4.50;99.90;;;;;;5269973;28;20078;-75
2021/12/22 12:13:24;;;;;;;3.55;2.10;;;4.30;99.90;;;;;;5269912;28;20384;-72
2021/12/22 12:22:08;;;;;;;4.75;2.25;;;4.30;99.90;;;;;;5270040;28;20031;-73
2021/12/22 12:24:57;;;;;;;4.88;1.50;;;4.40;94.80;;;;;;5269749;28;20416;-72
2021/12/22 12:27:32;;;;;;;3.85;1.92;;;4.20;90.90;;;;;;5269595;28;20032;-72
2021/12/22 12:30:10;;;;;;;2.88;1.42;;;4.20;93.10;;;;;;5269687;28;20033;-72
2021/12/22 12:32:41;;;;;;;3.78;1.50;;;4.30;99.90;;;;;;5269737;28;20483;-72
2021/12/22 12:38:16;;;;;;;4.38;2.22;;;4.20;99.90;;;;;;5269387;28;20063;-72
2021/12/22 12:41:11;;;;;;;4.47;2.13;;;4.20;99.90;;;;;;5269478;28;20035;-72
2021/12/22 12:43:42;;;;;;;5.72;1.92;;;4.10;99.90;;;;;;5269420;28;20036;-70
2021/12/22 12:46:19;;;;;;;3.33;1.95;;;4.20;99.90;;;;;;5269350;28;20024;-72
2021/12/22 12:49:16;;;;;;;6.80;2.45;;;4.20;99.90;;;;;;5269271;28;20018;-75
2021/12/22 12:51:47;;;;;;;4.47;2.05;;;4.10;99.90;;;;;;5269091;28;20024;-74
2021/12/22 12:54:18;;;;;;;4.10;2.10;;;4.00;99.90;;;;;;5269223;28;20030;-72
2021/12/22 12:56:59;;;;;;;3.65;1.95;;;4.00;99.90;;;;;;5269181;28;20020;-72
2021/12/22 12:59:39;;;;;;;4.03;2.60;;;3.90;99.90;;;;;;5269134;28;20744;-71
2021/12/22 13:02:18;;;;;;;4.00;2.45;;;3.70;99.90;;;;;;5267763;28;20015;-72
2021/12/22 13:04:58;;;;;;;3.42;2.10;;;3.70;99.90;;;;;;5269153;28;20028;-72
2021/12/22 13:07:30;;;;;;;7.38;2.42;;;3.70;99.90;;;;;;5268892;28;20433;-71
2021/12/22 13:10:10;;;;;;;5.30;2.78;;;3.60;99.90;;;;;;5268937;28;20566;-73
2021/12/22 13:18:26;;;;;;;4.60;1.92;;;3.50;99.90;;;;;;5269266;28;20081;-72
2021/12/22 13:21:06;;;;;;;2.88;1.75;;;3.60;99.90;;;;;;5268965;28;20352;-71
2021/12/22 13:23:37;;;;;;;4.68;2.28;;;3.50;99.90;;;;;;5268866;28;20123;-74
2021/12/22 13:26:08;;;;;;;5.20;2.25;;;3.30;99.90;;;;;;5268171;28;20111;-72
2021/12/22 13:28:39;;;;;;;4.05;2.40;;;3.20;99.90;;;;;;5268667;28;20030;-72
2021/12/22 13:31:10;;;;;;;4.45;2.17;;;3.40;99.90;;;;;;5268712;28;20028;-71
2021/12/22 13:33:51;;;;;;;4.82;2.13;;;3.40;99.90;;;;;;5268715;28;20107;-72
2021/12/22 13:36:22;;;;;;;;;;;3.30;99.90;;;;;;5269211;28;20035;-71
2021/12/22 13:38:57;;;;;;;5.55;3.72;;;3.40;99.90;;;;;;5268611;28;19912;-72
2021/12/22 13:41:31;;;;;;;7.82;3.97;;;3.30;99.90;;;;;;5268584;28;20060;-71
2021/12/22 13:44:05;;;;;;;14.38;6.40;;;3.30;99.90;;;;;;5268537;28;20514;-72
2021/12/22 13:46:37;;;;;;;10.70;4.70;;;3.30;99.90;;;;;;5268552;28;20487;-72